EJM81 KFRG-KSAT
Flight info
| Callsign | EJM81 |
|---|---|
| Flight time | N/A |
| Altitude | 43000 |
| Route | BEADS T320 SARDI RBV Q430 BYRDD J48 MOL VXV GQO BESOM Q38 ROKIT WAILN QERVO3 |
| Aircraft | C750/M-SBDE3FGHRWXY/S |
Departure
| Time | 2026-05-06 01:58 |
|---|---|
| Airport | Republic Airport (KFRG) |
Arrival
| Time | N/A |
|---|---|
| Airport | San Antonio International Airport (KSAT) |
| Time | Latitude | Longitude | Altitude | Speed | Heading |
|---|---|---|---|---|---|
| 2026-05-06 01:28 | 40.72317 | -73.42240 | 72 ft | 0 kts | 110° |
| 2026-05-06 01:51 | 40.72317 | -73.42239 | 72 ft | 1 kts | 110° |
| 2026-05-06 01:51 | 40.72315 | -73.42233 | 72 ft | 1 kts | 111° |
| 2026-05-06 01:51 | 40.72308 | -73.42208 | 71 ft | 5 kts | 112° |
| 2026-05-06 01:51 | 40.72290 | -73.42142 | 67 ft | 10 kts | 109° |
| 2026-05-06 01:52 | 40.72262 | -73.42038 | 72 ft | 14 kts | 110° |
| 2026-05-06 01:52 | 40.72233 | -73.41924 | 69 ft | 12 kts | 109° |
| 2026-05-06 01:52 | 40.72205 | -73.41818 | 71 ft | 12 kts | 109° |
| 2026-05-06 01:52 | 40.72187 | -73.41708 | 69 ft | 13 kts | 94° |
| 2026-05-06 01:53 | 40.72186 | -73.41589 | 66 ft | 12 kts | 89° |
| 2026-05-06 01:53 | 40.72229 | -73.41536 | 66 ft | 10 kts | 359° |
| 2026-05-06 01:53 | 40.72311 | -73.41538 | 66 ft | 13 kts | 359° |
| 2026-05-06 01:53 | 40.72407 | -73.41540 | 66 ft | 15 kts | 359° |
| 2026-05-06 01:54 | 40.72522 | -73.41542 | 71 ft | 19 kts | 359° |
| 2026-05-06 01:54 | 40.72666 | -73.41543 | 74 ft | 22 kts | 359° |
| 2026-05-06 01:54 | 40.72831 | -73.41546 | 81 ft | 25 kts | 359° |
| 2026-05-06 01:54 | 40.73003 | -73.41551 | 77 ft | 25 kts | 359° |
| 2026-05-06 01:55 | 40.73167 | -73.41554 | 73 ft | 22 kts | 359° |
| 2026-05-06 01:55 | 40.73322 | -73.41558 | 70 ft | 22 kts | 359° |
| 2026-05-06 01:55 | 40.73460 | -73.41561 | 71 ft | 18 kts | 359° |
| 2026-05-06 01:55 | 40.73580 | -73.41563 | 83 ft | 18 kts | 359° |
| 2026-05-06 01:56 | 40.73711 | -73.41561 | 83 ft | 18 kts | 14° |
| 2026-05-06 01:56 | 40.73795 | -73.41494 | 87 ft | 9 kts | 63° |
| 2026-05-06 01:56 | 40.73779 | -73.41457 | 90 ft | 0 kts | 179° |
| 2026-05-06 01:57 | 40.73774 | -73.41457 | 87 ft | 0 kts | 179° |
| 2026-05-06 01:57 | 40.73690 | -73.41454 | 86 ft | 48 kts | 179° |
| 2026-05-06 01:57 | 40.73040 | -73.41446 | 78 ft | 127 kts | 179° |
| 2026-05-06 01:57 | 40.72106 | -73.41407 | 521 ft | 137 kts | 181° |
| 2026-05-06 01:58 | 40.71197 | -73.41737 | 991 ft | 143 kts | 213° |
| 2026-05-06 01:58 | 40.70349 | -73.42486 | 1516 ft | 154 kts | 213° |
| 2026-05-06 01:58 | 40.69369 | -73.43197 | 2046 ft | 168 kts | 211° |
| 2026-05-06 01:58 | 40.68289 | -73.43932 | 2572 ft | 181 kts | 210° |
| 2026-05-06 01:59 | 40.67128 | -73.44715 | 3099 ft | 193 kts | 211° |
| 2026-05-06 01:59 | 40.65894 | -73.45550 | 3612 ft | 206 kts | 211° |
| 2026-05-06 01:59 | 40.64557 | -73.46457 | 4121 ft | 226 kts | 211° |
| 2026-05-06 01:59 | 40.63116 | -73.47430 | 4829 ft | 236 kts | 211° |
| 2026-05-06 02:00 | 40.61639 | -73.48426 | 5617 ft | 241 kts | 212° |
| 2026-05-06 02:00 | 40.60132 | -73.49444 | 6410 ft | 246 kts | 212° |
| 2026-05-06 02:00 | 40.58592 | -73.50484 | 7173 ft | 252 kts | 211° |
| 2026-05-06 02:00 | 40.57022 | -73.51544 | 8001 ft | 256 kts | 211° |
| 2026-05-06 02:01 | 40.55422 | -73.52623 | 8859 ft | 261 kts | 211° |
| 2026-05-06 02:01 | 40.53794 | -73.53721 | 9667 ft | 265 kts | 210° |
| 2026-05-06 02:01 | 40.52131 | -73.54842 | 10290 ft | 274 kts | 210° |
| 2026-05-06 02:01 | 40.50352 | -73.56046 | 10403 ft | 300 kts | 210° |
| 2026-05-06 02:02 | 40.48438 | -73.57336 | 10423 ft | 326 kts | 210° |
| 2026-05-06 02:02 | 40.46383 | -73.58712 | 10957 ft | 331 kts | 210° |
| 2026-05-06 02:02 | 40.44334 | -73.60082 | 11680 ft | 332 kts | 210° |
| 2026-05-06 02:02 | 40.42266 | -73.61474 | 12284 ft | 335 kts | 210° |
| 2026-05-06 02:03 | 40.40184 | -73.62876 | 12925 ft | 338 kts | 209° |
| 2026-05-06 02:03 | 40.38106 | -73.64326 | 13500 ft | 340 kts | 214° |
| 2026-05-06 02:03 | 40.36429 | -73.66499 | 13991 ft | 340 kts | 232° |
| 2026-05-06 02:03 | 40.35201 | -73.69111 | 14571 ft | 342 kts | 244° |
| 2026-05-06 02:04 | 40.34464 | -73.72089 | 15111 ft | 345 kts | 256° |
| 2026-05-06 02:04 | 40.33953 | -73.75183 | 15667 ft | 348 kts | 256° |
| 2026-05-06 02:04 | 40.33407 | -73.78282 | 16260 ft | 350 kts | 255° |
| 2026-05-06 02:04 | 40.32823 | -73.81380 | 16862 ft | 352 kts | 255° |
| 2026-05-06 02:05 | 40.32246 | -73.84513 | 17494 ft | 354 kts | 255° |
| 2026-05-06 02:05 | 40.31682 | -73.87665 | 18148 ft | 356 kts | 256° |
| 2026-05-06 02:05 | 40.31111 | -73.90826 | 18723 ft | 358 kts | 255° |
| 2026-05-06 02:05 | 40.30524 | -73.94018 | 19266 ft | 361 kts | 255° |
| 2026-05-06 02:06 | 40.29933 | -73.97240 | 19837 ft | 364 kts | 255° |
| 2026-05-06 02:06 | 40.29343 | -74.00470 | 20424 ft | 367 kts | 255° |
| 2026-05-06 02:06 | 40.28753 | -74.03693 | 20997 ft | 369 kts | 255° |
| 2026-05-06 02:06 | 40.28154 | -74.06949 | 21584 ft | 372 kts | 255° |
| 2026-05-06 02:07 | 40.27544 | -74.10259 | 22164 ft | 375 kts | 255° |
| 2026-05-06 02:07 | 40.26931 | -74.13587 | 22733 ft | 378 kts | 255° |
| 2026-05-06 02:07 | 40.26310 | -74.16951 | 23323 ft | 380 kts | 255° |
| 2026-05-06 02:07 | 40.25685 | -74.20327 | 23819 ft | 383 kts | 255° |
| 2026-05-06 02:08 | 40.25054 | -74.23730 | 24284 ft | 386 kts | 255° |
| 2026-05-06 02:08 | 40.24416 | -74.27164 | 24740 ft | 389 kts | 255° |
| 2026-05-06 02:08 | 40.23774 | -74.30614 | 25184 ft | 392 kts | 255° |
| 2026-05-06 02:08 | 40.23126 | -74.34094 | 25614 ft | 395 kts | 255° |
| 2026-05-06 02:09 | 40.22470 | -74.37609 | 26059 ft | 398 kts | 255° |
| 2026-05-06 02:09 | 40.21809 | -74.41143 | 26489 ft | 401 kts | 256° |
| 2026-05-06 02:09 | 40.21149 | -74.44665 | 26909 ft | 404 kts | 256° |
| 2026-05-06 02:09 | 40.20480 | -74.48255 | 27348 ft | 407 kts | 256° |
| 2026-05-06 02:10 | 40.20046 | -74.51938 | 27746 ft | 411 kts | 264° |
| 2026-05-06 02:10 | 40.19781 | -74.55663 | 28222 ft | 413 kts | 264° |
| 2026-05-06 02:10 | 40.19579 | -74.58192 | 28529 ft | 415 kts | 263° |
| 2026-05-06 02:10 | 40.19163 | -74.63193 | 29089 ft | 419 kts | 263° |
| 2026-05-06 02:11 | 40.18965 | -74.65717 | 29382 ft | 421 kts | 264° |
| 2026-05-06 02:11 | 40.18674 | -74.69537 | 29815 ft | 424 kts | 264° |
| 2026-05-06 02:11 | 40.18372 | -74.73386 | 30205 ft | 427 kts | 264° |
| 2026-05-06 02:11 | 40.18057 | -74.77269 | 30598 ft | 429 kts | 264° |
| 2026-05-06 02:12 | 40.17744 | -74.81142 | 31025 ft | 429 kts | 264° |
| 2026-05-06 02:12 | 40.17436 | -74.85011 | 31653 ft | 425 kts | 264° |
| 2026-05-06 02:12 | 40.17129 | -74.88841 | 32253 ft | 422 kts | 264° |
| 2026-05-06 02:12 | 40.16818 | -74.92654 | 32849 ft | 420 kts | 264° |
| 2026-05-06 02:13 | 40.16509 | -74.96440 | 33447 ft | 417 kts | 264° |
| 2026-05-06 02:13 | 40.15865 | -75.04316 | 34586 ft | 413 kts | 265° |
| 2026-05-06 02:13 | 40.15558 | -75.08040 | 35101 ft | 411 kts | 265° |
| 2026-05-06 02:14 | 40.15250 | -75.11759 | 35602 ft | 409 kts | 266° |
| 2026-05-06 02:14 | 40.14944 | -75.15446 | 36107 ft | 408 kts | 266° |
| 2026-05-06 02:14 | 40.14637 | -75.19127 | 36615 ft | 406 kts | 267° |
| 2026-05-06 02:14 | 40.14329 | -75.22797 | 37150 ft | 404 kts | 267° |
| 2026-05-06 02:15 | 40.14024 | -75.26430 | 37666 ft | 402 kts | 268° |
| 2026-05-06 02:15 | 40.13722 | -75.30005 | 38193 ft | 399 kts | 268° |
| 2026-05-06 02:15 | 40.13417 | -75.33613 | 38718 ft | 397 kts | 268° |
| 2026-05-06 02:15 | 40.13113 | -75.37185 | 39091 ft | 396 kts | 268° |
| 2026-05-06 02:16 | 40.12807 | -75.40785 | 39429 ft | 396 kts | 268° |
| 2026-05-06 02:16 | 40.12500 | -75.44364 | 39784 ft | 396 kts | 268° |
| 2026-05-06 02:16 | 40.12193 | -75.47934 | 40136 ft | 395 kts | 268° |
| 2026-05-06 02:16 | 40.11886 | -75.51499 | 40496 ft | 395 kts | 268° |
| 2026-05-06 02:17 | 40.11577 | -75.55063 | 40846 ft | 395 kts | 268° |
| 2026-05-06 02:17 | 40.11268 | -75.58618 | 41216 ft | 394 kts | 268° |
| 2026-05-06 02:17 | 40.10961 | -75.62136 | 41568 ft | 393 kts | 268° |
| 2026-05-06 02:17 | 40.10651 | -75.65688 | 41908 ft | 393 kts | 268° |
| 2026-05-06 02:18 | 40.10340 | -75.69229 | 42237 ft | 393 kts | 267° |
| 2026-05-06 02:18 | 40.10027 | -75.72772 | 42561 ft | 392 kts | 267° |
| 2026-05-06 02:18 | 40.09701 | -75.76309 | 42853 ft | 393 kts | 266° |
| 2026-05-06 02:18 | 40.09106 | -75.79829 | 42896 ft | 403 kts | 258° |
| 2026-05-06 02:19 | 40.08132 | -75.83316 | 42904 ft | 415 kts | 252° |
| 2026-05-06 02:19 | 40.06773 | -75.86698 | 42912 ft | 427 kts | 245° |
| 2026-05-06 02:19 | 40.03433 | -75.93279 | 42935 ft | 441 kts | 243° |
| 2026-05-06 02:20 | 39.98266 | -76.03468 | 42931 ft | 455 kts | 243° |
| 2026-05-06 02:21 | 39.94758 | -76.10351 | 42916 ft | 462 kts | 243° |
| 2026-05-06 02:21 | 39.91184 | -76.17354 | 42891 ft | 467 kts | 243° |
| 2026-05-06 02:22 | 39.87567 | -76.24416 | 42884 ft | 470 kts | 243° |
| 2026-05-06 02:22 | 39.83934 | -76.31502 | 42889 ft | 472 kts | 243° |
| 2026-05-06 02:23 | 39.80274 | -76.38619 | 42885 ft | 473 kts | 243° |
| 2026-05-06 02:23 | 39.76604 | -76.45743 | 42877 ft | 474 kts | 243° |
| 2026-05-06 02:24 | 39.72923 | -76.52871 | 42873 ft | 475 kts | 243° |
| 2026-05-06 02:24 | 39.69257 | -76.59954 | 42876 ft | 475 kts | 243° |
| 2026-05-06 02:25 | 39.65560 | -76.67082 | 42888 ft | 475 kts | 243° |
| 2026-05-06 02:25 | 39.61864 | -76.74191 | 42901 ft | 475 kts | 243° |
| 2026-05-06 02:26 | 39.58158 | -76.81302 | 42903 ft | 475 kts | 243° |
| 2026-05-06 02:26 | 39.54452 | -76.88399 | 42907 ft | 476 kts | 243° |
| 2026-05-06 02:27 | 39.50718 | -76.95409 | 42896 ft | 480 kts | 239° |
| 2026-05-06 02:27 | 39.45934 | -77.01631 | 42911 ft | 495 kts | 227° |
| 2026-05-06 02:28 | 39.40571 | -77.07255 | 42914 ft | 495 kts | 227° |
| 2026-05-06 02:28 | 39.35227 | -77.12893 | 42927 ft | 496 kts | 227° |
| 2026-05-06 02:29 | 39.29854 | -77.18513 | 42938 ft | 496 kts | 227° |
| 2026-05-06 02:29 | 39.24535 | -77.24091 | 42926 ft | 496 kts | 227° |
| 2026-05-06 02:30 | 39.19167 | -77.29691 | 42929 ft | 496 kts | 227° |
| 2026-05-06 02:30 | 39.13805 | -77.35286 | 42919 ft | 496 kts | 227° |
| 2026-05-06 02:31 | 39.08424 | -77.40881 | 42923 ft | 497 kts | 227° |
| 2026-05-06 02:31 | 39.03077 | -77.46434 | 42911 ft | 497 kts | 227° |
| 2026-05-06 02:32 | 38.97690 | -77.52016 | 42905 ft | 497 kts | 227° |
| 2026-05-06 02:32 | 38.92294 | -77.57596 | 42909 ft | 497 kts | 227° |
| 2026-05-06 02:33 | 38.86903 | -77.63160 | 42905 ft | 497 kts | 227° |
| 2026-05-06 02:33 | 38.85119 | -77.64998 | 42931 ft | 497 kts | 227° |
| 2026-05-06 02:34 | 38.76123 | -77.74251 | 42924 ft | 496 kts | 227° |
| 2026-05-06 02:34 | 38.70731 | -77.79783 | 42929 ft | 497 kts | 227° |
| 2026-05-06 02:35 | 38.65416 | -77.85326 | 42917 ft | 491 kts | 231° |
| 2026-05-06 02:35 | 38.61030 | -77.91832 | 42958 ft | 478 kts | 241° |
| 2026-05-06 02:36 | 38.57022 | -77.98655 | 42959 ft | 479 kts | 240° |
| 2026-05-06 02:36 | 38.53018 | -78.05458 | 42949 ft | 479 kts | 240° |
| 2026-05-06 02:37 | 38.49009 | -78.12266 | 42935 ft | 478 kts | 240° |
| 2026-05-06 02:37 | 38.45023 | -78.19008 | 42926 ft | 478 kts | 240° |
| 2026-05-06 02:38 | 38.41015 | -78.25786 | 42931 ft | 478 kts | 240° |
| 2026-05-06 02:38 | 38.37008 | -78.32539 | 42923 ft | 477 kts | 240° |
| 2026-05-06 02:39 | 38.33019 | -78.39254 | 42937 ft | 477 kts | 240° |
| 2026-05-06 02:39 | 38.29008 | -78.45986 | 42938 ft | 477 kts | 240° |
| 2026-05-06 02:40 | 38.24983 | -78.52732 | 42943 ft | 477 kts | 240° |
| 2026-05-06 02:40 | 38.20965 | -78.59452 | 42939 ft | 477 kts | 240° |
| 2026-05-06 02:41 | 38.16945 | -78.66159 | 42937 ft | 476 kts | 240° |
| 2026-05-06 02:41 | 38.12930 | -78.72847 | 42950 ft | 476 kts | 240° |
| 2026-05-06 02:42 | 38.08910 | -78.79528 | 42955 ft | 476 kts | 240° |
| 2026-05-06 02:42 | 38.04919 | -78.86147 | 42946 ft | 475 kts | 240° |
| 2026-05-06 02:43 | 38.00892 | -78.92814 | 42949 ft | 475 kts | 239° |
| 2026-05-06 02:43 | 37.96874 | -78.99450 | 42935 ft | 475 kts | 239° |
| 2026-05-06 02:44 | 37.92850 | -79.06083 | 42950 ft | 474 kts | 239° |
| 2026-05-06 02:44 | 37.89715 | -79.11738 | 42953 ft | 465 kts | 246° |
| 2026-05-06 02:45 | 37.86850 | -79.19006 | 42989 ft | 461 kts | 250° |
| 2026-05-06 02:45 | 37.84001 | -79.26298 | 43007 ft | 462 kts | 250° |
| 2026-05-06 02:46 | 37.81174 | -79.33605 | 43020 ft | 463 kts | 250° |
| 2026-05-06 02:46 | 37.78337 | -79.40872 | 43023 ft | 464 kts | 250° |
| 2026-05-06 02:47 | 37.75483 | -79.48190 | 43017 ft | 464 kts | 250° |
| 2026-05-06 02:47 | 37.72620 | -79.55501 | 43004 ft | 464 kts | 250° |
| 2026-05-06 02:48 | 37.69771 | -79.62764 | 42990 ft | 464 kts | 250° |
| 2026-05-06 02:48 | 37.66899 | -79.70072 | 42977 ft | 464 kts | 250° |
| 2026-05-06 02:49 | 37.64020 | -79.77375 | 42960 ft | 464 kts | 250° |
| 2026-05-06 02:49 | 37.61138 | -79.84671 | 42965 ft | 464 kts | 249° |
| 2026-05-06 02:50 | 37.58251 | -79.91962 | 42969 ft | 464 kts | 249° |
| 2026-05-06 02:50 | 37.55365 | -79.99234 | 42978 ft | 464 kts | 249° |
| 2026-05-06 02:51 | 37.52495 | -80.06448 | 42981 ft | 464 kts | 249° |
| 2026-05-06 02:51 | 37.49598 | -80.13713 | 42974 ft | 464 kts | 249° |
| 2026-05-06 02:52 | 37.46702 | -80.20961 | 42981 ft | 463 kts | 249° |
| 2026-05-06 02:52 | 37.43801 | -80.28204 | 42984 ft | 463 kts | 249° |
| 2026-05-06 02:53 | 37.40895 | -80.35441 | 43000 ft | 463 kts | 249° |
| 2026-05-06 02:53 | 37.37985 | -80.42673 | 43009 ft | 464 kts | 249° |
| 2026-05-06 02:54 | 37.35067 | -80.49906 | 43027 ft | 462 kts | 249° |